Time;durP1;ratioP1;P1;durP2;ratioP2;P2;SDS_P1;SDS_P2;PMS_P1;PMS_P2;Temp;Humidity;BMP_temperature;BMP_pressure;BME280_temperature;BME280_humidity;BME280_pressure;Samples;Min_cycle;Max_cycle;Signal;HPM_P1;HPM_P2
2022/05/29 00:02:37;;;;;;;2.88;0.55;;;;;;;10.16;56.21;100878.53;5006973;28;20045;-46
2022/05/29 00:05:05;;;;;;;3.63;0.50;;;;;;;10.10;56.07;100882.78;5008803;28;20046;-48
2022/05/29 00:07:32;;;;;;;2.15;0.55;;;;;;;9.99;56.70;100880.91;5008880;28;20054;-43
2022/05/29 00:10:01;;;;;;;2.03;0.70;;;;;;;9.90;56.78;100885.97;5010556;28;20401;-44
2022/05/29 00:12:27;;;;;;;2.45;0.47;;;;;;;9.77;57.23;100896.13;5003107;28;20054;-48
2022/05/29 00:14:55;;;;;;;2.50;0.60;;;;;;;9.67;57.26;100889.09;5007178;28;20042;-49
2022/05/29 00:17:22;;;;;;;2.00;1.00;;;;;;;9.61;57.21;100894.16;5005382;28;20555;-42
2022/05/29 00:19:49;;;;;;;5.68;1.23;;;;;;;9.57;57.45;100887.22;5006087;28;20053;-45
2022/05/29 00:22:18;;;;;;;1.60;0.73;;;;;;;9.56;56.90;100890.66;5009437;28;20049;-48
2022/05/29 00:24:47;;;;;;;3.55;0.70;;;;;;;9.55;57.86;100887.19;5006578;28;20050;-44
2022/05/29 00:27:16;;;;;;;2.08;0.85;;;;;;;9.56;57.16;100888.06;5002063;28;20468;-47
2022/05/29 00:29:43;;;;;;;2.13;0.55;;;;;;;9.57;57.87;100887.22;4998979;28;20046;-48
2022/05/29 00:32:11;;;;;;;3.40;0.77;;;;;;;9.59;57.15;100882.94;4999767;28;20533;-47
2022/05/29 00:34:37;;;;;;;2.15;0.60;;;;;;;9.61;56.86;100876.94;5005215;28;20497;-41
2022/05/29 00:37:05;;;;;;;2.35;0.90;;;;;;;9.63;56.89;100876.97;5004278;28;20405;-46
2022/05/29 00:39:32;;;;;;;2.65;0.90;;;;;;;9.64;57.13;100870.94;5010007;28;20041;-43
2022/05/29 00:41:59;;;;;;;3.05;1.30;;;;;;;9.64;57.04;100878.69;5004787;28;20549;-44
2022/05/29 00:44:43;;;;;;;2.63;2.03;;;;;;;9.64;56.92;100873.53;5006564;28;21222;-43
2022/05/29 00:47:13;;;;;;;1.98;0.40;;;;;;;9.65;56.55;100872.66;5012027;28;20050;-42
2022/05/29 00:49:42;;;;;;;4.22;0.52;;;;;;;9.64;57.16;100870.94;4983353;28;20046;-44
2022/05/29 00:54:53;;;;;;;1.20;0.50;;;;;;;9.63;57.06;100869.22;5029351;27;20413;-45
2022/05/29 00:57:33;;;;;;;3.65;0.50;;;;;;;9.59;56.66;100870.00;5007070;28;20056;-46
2022/05/29 01:00:07;;;;;;;4.30;0.70;;;;;;;9.59;56.64;100865.69;5007431;28;20529;-45
2022/05/29 01:02:33;;;;;;;1.73;0.60;;;;;;;9.55;56.66;100863.91;5005555;28;20050;-47
2022/05/29 01:05:03;;;;;;;3.22;0.82;;;;;;;9.51;56.78;100868.19;5006319;28;20046;-44
2022/05/29 01:07:30;;;;;;;;;;;;;;;9.33;57.26;100865.31;5010753;28;20054;-48
2022/05/29 01:09:59;;;;;;;1.92;1.33;;;;;;;9.37;56.26;100864.50;5016016;28;19941;-45
2022/05/29 01:39:30;;;;;;;5.05;1.13;;;;;;;9.16;56.59;100870.22;5024814;28;20411;-47
2022/05/29 01:42:04;;;;;;;1.77;1.23;;;;;;;9.16;57.19;100872.78;5007218;28;20578;-46
2022/05/29 01:47:23;;;;;;;2.90;1.55;;;;;;;9.50;57.51;100863.84;5041498;27;20412;-44
2022/05/29 01:49:56;;;;;;;1.45;0.60;;;;;;;9.28;56.94;100861.78;5013275;28;20087;-48
2022/05/29 01:52:31;;;;;;;1.42;0.70;;;;;;;9.19;58.09;100862.50;5008685;28;20049;-46
2022/05/29 01:55:07;;;;;;;1.73;0.60;;;;;;;9.12;58.10;100853.78;5016911;28;20053;-44
2022/05/29 01:57:40;;;;;;;2.72;0.47;;;;;;;9.07;58.00;100855.41;5002328;28;21777;-48
2022/05/29 02:00:16;;;;;;;1.48;0.68;;;;;;;9.02;57.48;100851.88;5013703;28;20073;-46
2022/05/29 02:02:50;;;;;;;2.55;0.95;;;;;;;8.96;58.04;100845.78;5015462;28;20051;-46
2022/05/29 02:05:24;;;;;;;4.13;0.60;;;;;;;8.93;57.18;100848.31;5005092;28;20046;-45
2022/05/29 02:07:59;;;;;;;2.28;0.90;;;;;;;8.91;57.81;100844.81;5017298;28;20064;-45
2022/05/29 02:10:49;;;;;;;1.73;0.63;;;;;;;8.87;57.77;100837.88;5014240;28;20511;-45
2022/05/29 02:21:44;;;;;;;2.00;0.93;;;;;;;8.81;58.16;100832.63;5022565;27;20400;-45
2022/05/29 02:24:16;;;;;;;1.63;1.00;;;;;;;8.85;58.30;100839.56;4983947;28;20047;-45
2022/05/29 02:26:57;;;;;;;2.72;1.02;;;;;;;8.83;57.37;100830.91;4982125;28;20051;-43
2022/05/29 02:29:24;;;;;;;1.58;0.85;;;;;;;8.86;58.31;100830.97;4982062;28;20051;-43
2022/05/29 02:32:31;;;;;;;1.67;1.02;;;;;;;8.83;58.81;100830.91;4981877;28;20442;-44
2022/05/29 02:51:18;;;;;;;1.60;0.80;;;;;;;9.02;58.65;100810.53;5035704;27;20411;-42
2022/05/29 07:36:06;;;;;;;;;;;;;;;;;;4618442;27;12345;-43
2022/05/29 07:44:55;;;;;;;;;;;;;;;;;;4818356;28;18840;-46
2022/05/29 07:47:21;;;;;;;;;;;;;;;;;;4981862;28;20953;-40
2022/05/29 07:49:47;;;;;;;;;;;;;;;;;;4984402;28;4661;-43
2022/05/29 07:52:14;;;;;;;;;;;;;;;;;;4978119;28;4929;-45
2022/05/29 07:54:40;;;;;;;;;;;;;;;;;;4977299;28;4788;-45
2022/05/29 07:57:06;;;;;;;;;;;;;;;;;;4984505;28;4639;-44
2022/05/29 07:59:33;;;;;;;;;;;;;;;;;;4987631;28;3831;-45
2022/05/29 08:02:03;;;;;;;;;;;;;;;;;;4979776;28;4782;-41
2022/05/29 08:04:29;;;;;;;;;;;;;;;;;;4981918;28;4788;-48
2022/05/29 08:06:55;;;;;;;;;;;;;;;;;;4977526;28;4781;-48
2022/05/29 09:01:57;;;;;;;;;;;;;;;18.91;41.95;100651.41;4414464;28;12426;-63
2022/05/29 09:07:02;;;;;;;;;;;;;;;19.05;42.74;100655.44;4415837;28;12281;-58
2022/05/29 09:10:31;;;;;;;;;;;;;;;18.66;42.81;100651.22;4532472;27;12412;-59
2022/05/29 09:13:26;;;;;;;;;;;;;;;18.56;42.80;100648.00;4533413;27;11882;-59
2022/05/29 09:16:14;;;;;;;7.45;1.02;;;;;;;18.56;43.29;100646.25;4438094;28;20420;-58
2022/05/29 09:20:29;;;;;;;8.32;1.15;;;;;;;18.53;44.09;100643.69;4812733;27;106802;-61
2022/05/29 09:26:44;;;;;;;10.68;1.27;;;;;;;18.34;45.82;100646.78;4821691;27;20469;-60
2022/05/29 09:29:11;;;;;;;5.25;0.73;;;;;;;18.04;44.18;100644.00;4903543;27;94786;-59
2022/05/29 09:31:39;;;;;;;9.60;0.88;;;;;;;17.92;45.55;100639.94;5095913;28;20078;-55
2022/05/29 09:38:23;;;;;;;20.10;1.98;;;;;;;18.11;44.67;100631.66;4992701;27;20414;-58
2022/05/29 09:43:29;;;;;;;15.40;1.75;;;;;;;18.12;44.83;100622.91;5024015;27;20398;-57
2022/05/29 09:46:17;;;;;;;22.42;3.72;;;;;;;18.16;44.46;100628.91;5034605;28;20460;-57
2022/05/29 09:51:57;;;;;;;14.25;1.48;;;;;;;18.26;44.18;100624.28;5047053;28;20728;-56
2022/05/29 09:57:23;;;;;;;9.80;2.67;;;;;;;18.26;44.69;100624.28;5053366;27;20925;-58
2022/05/29 09:59:59;;;;;;;8.52;2.58;;;;;;;18.24;45.55;100622.56;5023897;28;20053;-58
2022/05/29 10:02:35;;;;;;;11.02;2.42;;;;;;;18.29;44.71;100624.22;5022440;28;20057;-56
2022/05/29 10:05:04;;;;;;;8.40;1.73;;;;;;;18.30;44.27;100625.97;5022966;28;20049;-56
2022/05/29 10:10:11;;;;;;;7.55;1.88;;;;;;;18.30;43.93;100615.47;5035843;27;20414;-56
2022/05/29 10:12:47;;;;;;;12.30;1.27;;;;;;;18.35;44.41;100617.06;5018171;28;20089;-57
2022/05/29 10:17:51;;;;;;;5.47;1.20;;;;;;;18.36;44.60;100620.53;5082363;27;20391;-58
2022/05/29 10:23:07;;;;;;;4.60;0.80;;;;;;;18.32;44.77;100616.28;5015931;27;21198;-57
2022/05/29 10:25:38;;;;;;;6.72;1.33;;;;;;;18.30;44.61;100620.72;5017005;28;20053;-56
2022/05/29 10:28:15;;;;;;;7.03;0.68;;;;;;;18.30;44.29;100607.59;5010122;28;20453;-56
2022/05/29 10:30:57;;;;;;;8.35;1.00;;;;;;;18.30;44.94;100604.97;5014841;28;20129;-57
2022/05/29 10:33:28;;;;;;;4.35;0.68;;;;;;;18.30;44.37;100604.97;5022245;28;20508;-57
2022/05/29 10:36:02;;;;;;;4.68;0.90;;;;;;;18.32;44.28;100592.69;5014900;28;20062;-57
2022/05/29 10:38:29;;;;;;;6.53;0.98;;;;;;;18.33;45.07;100599.63;5013317;28;20053;-58
2022/05/29 10:41:00;;;;;;;5.50;0.55;;;;;;;18.33;44.22;100594.38;5020091;28;20048;-58
2022/05/29 11:35:06;;;;;;;3.03;0.85;;;;;;;18.38;44.25;100568.94;5059341;27;20399;-58
2022/05/29 11:51:08;;;;;;;1.25;0.60;;;;;;;18.39;44.19;100556.66;5032200;27;20416;-56
2022/05/29 11:53:41;;;;;;;1.60;0.95;;;;;;;18.36;44.48;100557.59;5003472;28;20050;-59
2022/05/29 11:56:15;;;;;;;0.50;0.40;;;;;;;18.36;44.03;100555.84;5001000;28;20058;-62
2022/05/29 11:58:48;;;;;;;1.88;0.40;;;;;;;18.37;44.18;100554.06;5005456;28;20517;-57
2022/05/29 12:01:23;;;;;;;0.95;0.45;;;;;;;18.36;44.23;100548.00;5003214;28;20105;-56
2022/05/29 12:12:27;;;;;;;1.33;0.95;;;;;;;18.30;45.04;100542.91;5047776;27;20403;-57
2022/05/29 12:14:59;;;;;;;1.00;0.75;;;;;;;18.34;44.62;100543.69;5023537;28;20052;-57
2022/05/29 12:17:43;;;;;;;1.55;1.45;;;;;;;18.36;43.63;100536.63;5025245;28;20042;-58
2022/05/29 12:30:43;;;;;;;1.38;0.50;;;;;;;18.37;44.11;100527.84;5100789;27;20914;-58
2022/05/29 12:33:14;;;;;;;0.82;0.47;;;;;;;18.36;44.53;100526.13;5082796;28;20069;-57
2022/05/29 12:35:56;;;;;;;1.20;0.60;;;;;;;18.38;44.97;100524.34;5079365;28;20055;-58
2022/05/29 12:38:52;;;;;;;1.63;0.55;;;;;;;18.39;43.63;100523.44;5081596;28;20059;-58
2022/05/29 12:41:45;;;;;;;0.60;0.40;;;;;;;18.41;43.87;100524.22;5067241;28;20055;-58
2022/05/29 13:11:07;;;;;;;1.25;0.50;;;;;;;18.50;44.84;100492.53;5103869;27;20381;-58
2022/05/29 13:13:41;;;;;;;2.00;0.32;;;;;;;18.50;44.21;100482.03;5025690;28;20042;-58
2022/05/29 13:16:29;;;;;;;1.48;0.40;;;;;;;18.54;43.64;100487.19;5021975;28;20038;-58
2022/05/29 13:21:32;;;;;;;1.98;0.40;;;;;;;18.57;44.08;100471.34;5042877;27;20902;-58
2022/05/29 13:23:58;;;;;;;0.88;0.50;;;;;;;18.58;44.63;100473.09;4996650;28;20057;-57
2022/05/29 13:26:29;;;;;;;1.80;0.50;;;;;;;18.58;45.79;100476.53;4997359;28;20054;-57
2022/05/29 13:29:04;;;;;;;0.60;0.50;;;;;;;18.60;44.67;100471.25;4997838;28;20508;-57
2022/05/29 13:31:33;;;;;;;0.95;0.30;;;;;;;18.60;44.61;100476.50;4997145;28;20050;-58
2022/05/29 13:34:24;;;;;;;1.13;0.98;;;;;;;18.59;45.09;100482.66;5002241;28;20038;-59
2022/05/29 13:44:47;;;;;;;1.40;0.68;;;;;;;18.63;44.39;100471.16;5055196;28;20425;-58
2022/05/29 14:05:55;;;;;;;0.70;0.60;;;;;;;18.77;44.81;100462.03;5047111;28;20048;-56
2022/05/29 14:08:26;;;;;;;0.75;0.40;;;;;;;18.79;44.97;100450.59;5044989;28;20049;-57
2022/05/29 14:11:08;;;;;;;0.90;0.90;;;;;;;18.84;44.59;100447.81;5044947;28;20053;-57
2022/05/29 14:27:21;;;;;;;2.20;1.92;;;;;;;18.94;45.44;100428.25;5114426;27;20887;-59
2022/05/29 14:35:51;;;;;;;1.08;0.98;;;;;;;18.94;45.84;100427.38;5060775;27;20394;-56
2022/05/29 14:49:14;;;;;;;0.98;0.88;;;;;;;18.94;45.48;100417.75;5042711;28;20774;-57
2022/05/29 14:51:46;;;;;;;1.60;0.52;;;;;;;18.93;45.35;100425.66;5019360;28;20050;-58
2022/05/29 14:59:32;;;;;;;1.48;0.82;;;;;;;18.94;44.96;100422.13;5100854;27;20381;-58
2022/05/29 15:02:02;;;;;;;1.35;0.40;;;;;;;18.96;45.33;100415.06;5083989;28;20061;-57
2022/05/29 15:04:36;;;;;;;0.95;0.22;;;;;;;18.96;44.66;100410.69;5079540;28;20045;-58
2022/05/29 15:12:40;;;;;;;1.33;0.68;;;;;;;19.00;44.25;100399.19;5049667;28;20521;-58
2022/05/29 15:26:26;;;;;;;0.85;0.50;;;;;;;19.05;44.67;100379.81;5003446;28;20053;-57
2022/05/29 15:28:57;;;;;;;1.10;0.77;;;;;;;19.10;44.63;100375.28;5005275;28;20092;-59
2022/05/29 15:31:29;;;;;;;0.60;0.60;;;;;;;19.12;45.45;100373.47;5018231;28;20464;-57
2022/05/29 16:00:31;;;;;;;0.90;0.77;;;;;;;19.38;45.61;100358.59;5054682;27;20398;-58
2022/05/29 16:03:00;;;;;;;1.08;0.98;;;;;;;19.39;45.07;100349.81;5024565;28;20095;-57
2022/05/29 16:05:36;;;;;;;0.95;0.50;;;;;;;19.42;45.05;100349.69;5022706;28;20060;-57
2022/05/29 16:22:10;;;;;;;1.35;0.52;;;;;;;19.55;45.44;100338.78;5097281;27;20411;-57
2022/05/29 16:30:06;;;;;;;1.10;0.40;;;;;;;19.45;44.99;100333.81;5052747;27;20386;-58
2022/05/29 16:32:54;;;;;;;1.67;0.50;;;;;;;19.46;44.88;100332.94;5016769;28;20112;-58
2022/05/29 16:35:26;;;;;;;1.42;0.40;;;;;;;19.45;44.79;100331.19;5018859;28;20048;-57
2022/05/29 16:50:29;;;;;;;0.90;0.65;;;;;;;19.36;44.59;100319.25;5017246;28;20045;-58
2022/05/29 16:53:18;;;;;;;1.67;0.88;;;;;;;19.36;43.88;100319.25;5014737;28;20052;-58
2022/05/29 16:55:49;;;;;;;0.65;0.60;;;;;;;19.35;43.73;100316.69;5016533;28;20050;-58
2022/05/29 16:58:32;;;;;;;0.80;0.68;;;;;;;19.30;44.31;100308.97;5016250;28;20707;-58
2022/05/29 17:01:08;;;;;;;0.70;0.60;;;;;;;19.32;44.22;100311.56;5014847;28;20038;-58
2022/05/29 17:06:30;;;;;;;1.20;1.10;;;;;;;19.35;43.75;100316.69;5059348;27;20405;-58
2022/05/29 17:09:15;;;;;;;1.92;1.23;;;;;;;19.34;43.83;100314.97;5037174;28;20049;-58
2022/05/29 17:11:44;;;;;;;2.03;0.90;;;;;;;19.35;44.08;100316.69;5037733;28;20493;-60
2022/05/29 17:14:12;;;;;;;1.00;0.65;;;;;;;19.31;43.69;100309.81;5037408;28;20050;-57
2022/05/29 17:16:38;;;;;;;1.33;0.93;;;;;;;19.29;43.92;100316.91;5041131;28;20433;-59
2022/05/29 17:19:05;;;;;;;1.40;0.82;;;;;;;19.31;43.43;100309.81;5039258;28;20049;-59
2022/05/29 17:21:38;;;;;;;1.60;0.77;;;;;;;19.31;43.68;100309.81;5032873;28;20136;-59
2022/05/29 17:24:19;;;;;;;1.02;1.00;;;;;;;19.29;43.25;100315.16;5037802;28;20124;-59
2022/05/29 17:40:26;;;;;;;0.80;0.50;;;;;;;19.26;43.45;100323.13;5091865;27;20412;-56
2022/05/29 17:42:53;;;;;;;0.80;0.30;;;;;;;19.24;43.85;100315.28;5066711;28;20048;-58
2022/05/29 17:45:20;;;;;;;1.67;0.68;;;;;;;19.21;44.11;100320.66;5078954;28;20399;-56
2022/05/29 17:48:26;;;;;;;1.92;0.50;;;;;;;19.21;43.59;100325.91;5081711;28;20044;-58
2022/05/29 17:58:47;;;;;;;0.73;0.68;;;;;;;19.14;43.79;100319.13;5018624;27;20405;-58
2022/05/29 18:01:13;;;;;;;0.80;0.60;;;;;;;19.15;43.57;100318.22;5017315;28;20449;-58
2022/05/29 18:03:41;;;;;;;1.23;0.75;;;;;;;19.13;44.10;100320.06;5018516;28;20185;-58
2022/05/29 18:06:08;;;;;;;1.48;0.60;;;;;;;19.14;43.55;100319.13;5019678;28;20045;-58
2022/05/29 18:08:34;;;;;;;1.92;0.98;;;;;;;19.13;43.54;100322.69;5014268;28;20106;-56
2022/05/29 18:11:08;;;;;;;1.95;1.05;;;;;;;19.14;43.67;100324.38;5010993;28;20917;-58
2022/05/29 18:13:36;;;;;;;1.42;0.98;;;;;;;19.13;43.42;100317.44;5010369;28;20046;-57
2022/05/29 18:16:04;;;;;;;0.73;0.52;;;;;;;19.13;43.42;100323.56;5021621;28;20049;-58
2022/05/29 18:18:31;;;;;;;0.88;0.82;;;;;;;19.14;43.60;100308.63;5018751;28;20042;-59
2022/05/29 18:21:04;;;;;;;1.33;1.17;;;;;;;19.17;43.21;100313.78;5022993;28;20042;-58
2022/05/29 18:23:31;;;;;;;1.33;0.60;;;;;;;19.19;43.78;100309.34;5019816;28;20050;-58
2022/05/29 18:25:59;;;;;;;0.77;0.60;;;;;;;19.18;43.36;100307.63;5018207;28;20046;-57
2022/05/29 18:28:27;;;;;;;1.85;0.60;;;;;;;19.17;43.30;100307.66;5017393;28;20103;-57
2022/05/29 18:30:54;;;;;;;2.00;1.35;;;;;;;19.16;44.28;100306.84;5017313;28;20103;-58
2022/05/29 18:33:27;;;;;;;1.88;1.08;;;;;;;19.18;43.54;100314.66;5014262;28;20041;-58
2022/05/29 18:35:55;;;;;;;1.55;0.43;;;;;;;19.19;43.33;100322.50;5018010;28;20045;-58
2022/05/29 18:38:22;;;;;;;1.20;0.77;;;;;;;19.18;44.21;100323.38;5012710;28;20100;-58
2022/05/29 18:40:48;;;;;;;1.40;1.05;;;;;;;19.18;43.26;100326.00;5009442;28;20054;-58
2022/05/29 18:43:15;;;;;;;1.77;0.98;;;;;;;19.18;43.52;100328.63;5011421;28;20092;-58
2022/05/29 18:45:42;;;;;;;1.92;0.82;;;;;;;19.18;43.78;100331.25;5020693;28;20038;-57
2022/05/29 18:48:09;;;;;;;1.42;0.82;;;;;;;19.19;43.32;100335.63;5011849;28;20567;-58
2022/05/29 18:50:36;;;;;;;1.85;0.85;;;;;;;19.19;43.19;100338.25;5012622;28;20445;-58
2022/05/29 18:53:03;;;;;;;0.93;0.85;;;;;;;19.21;43.32;100336.41;5005491;28;20058;-58
2022/05/29 18:55:30;;;;;;;5.63;0.65;;;;;;;19.14;43.24;100330.50;4998656;28;20053;-58
2022/05/29 18:57:56;;;;;;;2.28;1.67;;;;;;;18.89;42.88;100325.19;4995524;28;20050;-58
2022/05/29 19:00:23;;;;;;;9.82;1.58;;;;;;;18.75;43.44;100323.88;5001485;28;20752;-58
2022/05/29 19:02:49;;;;;;;19.45;2.00;;;;;;;18.70;43.39;100322.31;5000373;28;20058;-60
2022/05/29 19:05:16;;;;;;;8.15;0.95;;;;;;;18.67;43.33;100320.63;5006696;28;20748;-60
2022/05/29 19:07:44;;;;;;;6.60;1.00;;;;;;;18.64;43.15;100315.47;5005431;28;20034;-60
2022/05/29 19:10:14;;;;;;;4.82;0.90;;;;;;;18.60;43.05;100319.13;4989881;28;20653;-60
2022/05/29 19:33:03;;;;;;;3.05;0.70;;;;;;;13.16;51.72;100299.53;4878425;28;20590;-38
2022/05/29 19:40:44;;;;;;;3.47;1.88;;;;;;;12.50;84.34;99549.28;4715393;27;20432;-35
2022/05/29 19:51:50;;;;;;;5.70;0.65;;;;;;;11.23;59.20;99322.31;4904393;28;20415;-50
2022/05/29 19:54:17;;;;;;;3.08;0.52;;;;;;;11.91;59.66;99462.06;4908907;28;20046;-52
2022/05/29 19:56:43;;;;;;;2.90;0.40;;;;;;;12.19;58.67;99602.66;4979139;28;20062;-56
2022/05/29 19:59:10;;;;;;;3.90;0.75;;;;;;;12.28;57.29;99721.09;4984175;28;20097;-53
2022/05/29 20:01:37;;;;;;;3.70;0.68;;;;;;;12.31;57.11;99840.50;4983640;28;20107;-58
2022/05/29 20:04:04;;;;;;;2.35;0.60;;;;;;;12.31;57.23;99921.00;5001334;28;20528;-56
2022/05/29 20:06:35;;;;;;;1.88;0.50;;;;;;;12.32;56.33;99997.16;5004222;28;20060;-56
2022/05/29 20:09:04;;;;;;;4.03;0.60;;;;;;;12.29;55.28;100047.41;5002805;28;20548;-55
2022/05/29 20:11:37;;;;;;;4.18;0.70;;;;;;;12.25;55.25;100082.06;5002342;28;20154;-52
2022/05/29 20:14:06;;;;;;;3.17;0.47;;;;;;;12.24;55.98;100114.13;5035186;28;20068;-56
2022/05/29 20:16:39;;;;;;;2.25;0.60;;;;;;;12.23;54.67;100133.16;5029504;28;20057;-48
2022/05/29 20:19:07;;;;;;;4.88;0.75;;;;;;;12.21;55.03;100145.28;4998575;28;20058;-55
2022/05/29 20:21:35;;;;;;;3.78;0.43;;;;;;;12.19;55.54;100162.59;4986150;28;20105;-56
2022/05/29 20:24:04;;;;;;;6.95;0.85;;;;;;;12.15;55.53;100166.97;4986262;28;20437;-54
2022/05/29 20:26:32;;;;;;;3.85;0.70;;;;;;;12.14;54.72;100169.56;4983816;28;20108;-57
2022/05/29 20:28:59;;;;;;;2.30;0.45;;;;;;;12.10;54.63;100178.25;5015066;28;21017;-54
2022/05/29 20:31:30;;;;;;;1.83;0.50;;;;;;;12.03;54.53;100185.19;4984111;28;20105;-50
2022/05/29 20:33:57;;;;;;;4.03;0.65;;;;;;;12.00;54.66;100182.63;4985624;28;20458;-54
2022/05/29 20:36:26;;;;;;;0.75;0.30;;;;;;;11.95;54.32;100185.25;4986079;28;20050;-55
2022/05/29 20:38:53;;;;;;;4.97;0.55;;;;;;;11.90;54.05;100189.59;4984287;28;20065;-55
2022/05/29 20:41:24;;;;;;;3.83;0.73;;;;;;;11.86;54.02;100193.09;4989307;28;20046;-56
2022/05/29 20:43:52;;;;;;;4.28;0.43;;;;;;;11.77;54.59;100194.88;5011327;28;20062;-57
2022/05/29 20:49:10;;;;;;;3.67;1.00;;;;;;;11.70;54.55;100200.97;4996400;28;20097;-55
2022/05/29 20:51:37;;;;;;;4.18;0.82;;;;;;;11.67;54.68;100206.16;4983362;28;20051;-50
2022/05/29 20:54:06;;;;;;;0.80;0.50;;;;;;;11.65;53.91;100218.28;4985334;28;20414;-58
2022/05/29 20:56:34;;;;;;;2.88;0.63;;;;;;;11.60;55.11;100214.84;4983719;28;20057;-58
2022/05/29 20:59:01;;;;;;;5.15;0.68;;;;;;;11.50;55.07;100220.06;4986081;28;20050;-54
2022/05/29 21:01:31;;;;;;;2.25;0.40;;;;;;;11.45;55.03;100221.81;4978504;28;20035;-52
2022/05/29 21:03:58;;;;;;;2.08;0.43;;;;;;;11.39;54.34;100233.06;4972652;28;20065;-56
2022/05/29 21:06:25;;;;;;;2.20;0.70;;;;;;;11.33;55.27;100233.09;4970695;28;20039;-58
2022/05/29 21:08:52;;;;;;;1.70;0.88;;;;;;;11.26;54.95;100232.25;4972429;28;20490;-58
2022/05/29 21:11:19;;;;;;;2.20;0.50;;;;;;;11.22;54.47;100225.34;4970055;28;20047;-57
2022/05/29 21:13:46;;;;;;;6.03;1.00;;;;;;;11.18;54.80;100223.63;4969570;28;20058;-54
2022/05/29 21:16:15;;;;;;;5.63;1.02;;;;;;;11.14;55.27;100227.06;4972411;28;20042;-53
2022/05/29 21:18:44;;;;;;;3.17;0.70;;;;;;;11.09;54.90;100239.19;4986709;28;20425;-57
2022/05/29 21:26:28;;;;;;;2.90;1.80;;;;;;;10.93;55.15;100249.59;5073424;27;20409;-48
2022/05/29 21:28:57;;;;;;;2.80;1.38;;;;;;;10.84;55.13;100240.09;5044135;28;20050;-56
2022/05/29 21:31:24;;;;;;;1.98;1.35;;;;;;;10.76;55.89;100242.69;5041742;28;20049;-53
2022/05/29 21:33:51;;;;;;;4.47;1.38;;;;;;;10.72;55.72;100235.78;5037069;28;20339;-57
2022/05/29 21:36:23;;;;;;;5.38;2.13;;;;;;;10.68;55.55;100234.06;5025658;28;20048;-50
2022/05/29 21:38:50;;;;;;;15.45;5.28;;;;;;;10.63;55.36;100231.47;5036432;28;20087;-51
2022/05/29 21:41:17;;;;;;;10.10;3.28;;;;;;;10.61;55.61;100234.94;5039723;28;20489;-50
2022/05/29 21:43:43;;;;;;;4.85;2.53;;;;;;;10.57;55.70;100238.38;5038953;28;20083;-51
2022/05/29 21:46:13;;;;;;;4.93;2.22;;;;;;;10.52;55.69;100239.25;5042308;28;20453;-54
2022/05/29 21:48:42;;;;;;;4.40;2.20;;;;;;;10.48;55.82;100240.09;5040659;28;20077;-49
2022/05/29 21:51:12;;;;;;;9.75;4.15;;;;;;;10.44;55.46;100240.94;5039916;28;20049;-52
2022/05/29 21:53:39;;;;;;;7.28;2.85;;;;;;;10.43;55.67;100239.19;5021733;28;20057;-51
2022/05/29 21:56:10;;;;;;;5.72;2.42;;;;;;;10.40;56.19;100241.75;5039374;28;20103;-46
2022/05/29 21:58:38;;;;;;;7.18;2.15;;;;;;;10.36;55.79;100232.28;5038269;28;20057;-50
2022/05/29 22:01:07;;;;;;;5.80;2.25;;;;;;;10.33;55.83;100237.47;5023237;28;20048;-50
2022/05/29 22:03:36;;;;;;;6.10;2.20;;;;;;;10.27;56.35;100239.16;5041033;28;20136;-57
2022/05/29 22:13:57;;;;;;;3.13;0.65;;;;;;;10.36;56.19;100242.63;5072510;28;20411;-50
2022/05/29 22:16:26;;;;;;;3.47;1.10;;;;;;;10.28;56.67;100235.75;5038556;28;20050;-52
2022/05/29 22:18:54;;;;;;;2.33;0.75;;;;;;;10.21;56.78;100239.19;5020437;28;20053;-54
2022/05/29 22:23:59;;;;;;;18.88;6.45;;;;;;;10.10;57.43;100220.16;5068684;27;20421;-53
2022/05/29 22:26:29;;;;;;;14.48;4.03;;;;;;;10.07;56.79;100221.03;5019521;28;20065;-50
2022/05/29 22:28:58;;;;;;;;;;;;;;;9.86;57.21;100224.44;5019903;28;20049;-51
2022/05/29 22:39:52;;;;;;;2.85;0.60;;;;;;;9.76;56.68;100197.63;5015880;28;20733;-56
2022/05/29 22:42:20;;;;;;;2.58;1.00;;;;;;;9.66;57.37;100195.91;4998551;28;20051;-52
2022/05/29 22:44:48;;;;;;;4.25;0.73;;;;;;;9.61;57.27;100206.22;5000826;28;20050;-52
2022/05/29 22:50:39;;;;;;;5.00;1.45;;;;;;;9.42;56.79;100219.06;5027886;27;20441;-56
2022/05/29 22:55:48;;;;;;;4.18;2.25;;;;;;;9.05;56.89;100217.13;5063952;27;20406;-51
2022/05/29 22:58:18;;;;;;;4.88;0.82;;;;;;;8.97;57.49;100219.69;5053400;28;20392;-51
2022/05/29 23:00:46;;;;;;;4.95;2.45;;;;;;;8.93;57.75;100217.94;5050574;28;20132;-50
2022/05/29 23:05:56;;;;;;;5.80;2.10;;;;;;;9.65;56.62;100213.13;5088706;27;20393;-58
2022/05/29 23:08:24;;;;;;;6.70;1.52;;;;;;;9.24;58.25;100205.22;5044085;28;20450;-51
2022/05/29 23:10:51;;;;;;;3.30;1.25;;;;;;;9.16;57.71;100208.59;5043297;28;20052;-53
2022/05/29 23:13:19;;;;;;;5.43;1.52;;;;;;;9.11;57.82;100208.56;5046004;28;20048;-55
2022/05/29 23:15:45;;;;;;;2.90;0.93;;;;;;;9.08;57.47;100206.84;5043635;28;20087;-53
2022/05/29 23:18:12;;;;;;;3.75;1.23;;;;;;;9.04;58.78;100205.09;5041697;28;20068;-48
2022/05/29 23:20:39;;;;;;;4.68;1.70;;;;;;;9.05;57.56;100195.63;5044835;28;20771;-55
2022/05/29 23:23:08;;;;;;;5.07;1.60;;;;;;;9.02;58.91;100195.59;5078046;28;20052;-52
2022/05/29 23:25:39;;;;;;;4.97;1.55;;;;;;;8.98;57.85;100200.75;5081857;28;20040;-51
2022/05/29 23:28:06;;;;;;;;;;;;;;;8.83;59.25;100200.66;5079256;28;20070;-49
2022/05/29 23:30:52;;;;;;;6.75;1.30;;;;;;;8.90;58.99;100197.25;5075758;28;19962;-56
2022/05/29 23:33:19;;;;;;;3.47;0.93;;;;;;;8.96;58.89;100194.72;5079240;28;20140;-49
2022/05/29 23:35:47;;;;;;;2.70;1.13;;;;;;;8.99;58.98;100199.88;5080572;28;20135;-51
2022/05/29 23:38:16;;;;;;;3.83;1.05;;;;;;;9.04;58.92;100201.63;5079664;28;20527;-51
2022/05/29 23:40:44;;;;;;;6.68;0.80;;;;;;;9.08;58.33;100200.78;5080479;28;20488;-53
2022/05/29 23:43:18;;;;;;;3.85;1.10;;;;;;;9.10;59.05;100199.09;5082580;28;20051;-54
2022/05/29 23:51:18;;;;;;;8.32;1.63;;;;;;;9.19;59.15;100193.13;5074942;27;20407;-53
2022/05/29 23:53:45;;;;;;;5.20;1.40;;;;;;;9.21;59.38;100186.22;5041153;28;20128;-56
2022/05/29 23:56:13;;;;;;;2.30;0.60;;;;;;;9.24;59.02;100187.13;5042263;28;20057;-52
2022/05/29 23:58:41;;;;;;;11.75;2.80;;;;;;;9.25;58.91;100183.66;5039919;28;20045;-50
